Time;durP1;ratioP1;P1;durP2;ratioP2;P2;SDS_P1;SDS_P2;PMS_P1;PMS_P2;Temp;Humidity;BMP_temperature;BMP_pressure;BME280_temperature;BME280_humidity;BME280_pressure;Samples;Min_cycle;Max_cycle;Signal;HPM_P1;HPM_P2
2021/10/29 00:00:14;;;;;;;15.90;9.30;;;;;;;9.48;65.72;101179.91;5029452;28;20044;-80
2021/10/29 00:03:18;;;;;;;17.88;10.52;;;;;;;9.27;66.34;101177.53;5023327;28;20052;-79
2021/10/29 00:06:04;;;;;;;13.30;9.18;;;;;;;9.36;66.33;101175.75;5052561;28;20056;-79
2021/10/29 00:08:49;;;;;;;17.58;10.10;;;;;;;9.43;66.20;101175.38;5029101;28;20053;-79
2021/10/29 00:11:34;;;;;;;17.52;9.18;;;;;;;9.50;66.22;101167.66;5022108;28;20041;-79
2021/10/29 00:14:19;;;;;;;;;;;;;;;9.38;66.01;101176.28;5029556;28;20053;-81
2021/10/29 00:17:06;;;;;;;19.17;11.55;;;;;;;9.30;66.34;101167.97;5036619;28;19913;-80
2021/10/29 00:19:50;;;;;;;21.95;13.07;;;;;;;9.26;66.46;101165.06;5030654;28;20045;-79
2021/10/29 00:22:36;;;;;;;14.98;8.88;;;;;;;9.30;66.21;101157.94;5027422;28;20041;-79
2021/10/29 00:25:22;;;;;;;22.08;11.55;;;;;;;9.17;66.43;101169.53;5031841;28;20411;-79
2021/10/29 00:28:07;;;;;;;15.50;10.43;;;;;;;9.39;66.48;101152.66;5041276;28;20439;-80
2021/10/29 00:30:52;;;;;;;14.38;8.20;;;;;;;9.31;65.47;101164.97;5038875;28;20125;-79
2021/10/29 00:33:37;;;;;;;14.35;7.90;;;;;;;9.24;66.07;101161.84;5039327;28;20056;-79
2021/10/29 00:36:23;;;;;;;7.97;5.03;;;;;;;9.16;66.04;101157.06;5030370;28;20056;-78
2021/10/29 00:39:08;;;;;;;12.90;7.22;;;;;;;9.29;65.35;101166.38;5027766;28;20045;-78
2021/10/29 00:41:55;;;;;;;15.70;8.35;;;;;;;9.29;65.05;101163.66;5027170;28;20057;-78
2021/10/29 00:44:42;;;;;;;15.65;8.63;;;;;;;9.23;65.74;101162.13;5016804;28;20041;-80
2021/10/29 00:47:28;;;;;;;15.50;7.00;;;;;;;9.07;65.79;101156.13;5008431;28;20052;-79
2021/10/29 00:50:13;;;;;;;17.95;8.90;;;;;;;9.14;65.56;101153.84;5023415;28;20060;-79
2021/10/29 00:52:59;;;;;;;28.60;14.30;;;;;;;9.24;65.17;101159.13;5007711;28;20052;-81
2021/10/29 00:55:44;;;;;;;13.63;6.55;;;;;;;9.13;65.29;101151.44;5025534;28;20049;-81
2021/10/29 00:58:29;;;;;;;9.68;5.93;;;;;;;9.25;65.45;101147.16;5023181;28;20040;-81
2021/10/29 01:01:15;;;;;;;12.23;5.63;;;;;;;9.22;64.89;101147.75;5020596;28;20127;-81
2021/10/29 01:04:00;;;;;;;11.20;5.60;;;;;;;9.23;65.44;101145.84;5020634;28;20052;-81
2021/10/29 01:06:45;;;;;;;8.60;4.50;;;;;;;9.28;64.95;101152.00;5033582;28;20061;-80
2021/10/29 01:09:30;;;;;;;7.57;3.88;;;;;;;9.22;64.77;101155.09;5032277;28;20068;-80
2021/10/29 01:12:15;;;;;;;12.35;4.95;;;;;;;9.25;65.06;101149.06;5025455;28;20052;-80
2021/10/29 01:15:02;;;;;;;7.15;4.78;;;;;;;9.24;65.04;101140.13;5012729;28;20049;-79
2021/10/29 01:17:47;;;;;;;9.00;5.07;;;;;;;9.35;64.41;101136.13;5031744;28;20044;-79
2021/10/29 01:20:32;;;;;;;9.52;5.38;;;;;;;9.31;64.89;101124.25;5030755;28;20112;-79
2021/10/29 01:23:17;;;;;;;8.20;4.72;;;;;;;9.28;64.48;101124.88;4999088;28;20543;-79
2021/10/29 01:26:04;;;;;;;9.90;5.43;;;;;;;9.25;65.15;101121.91;5016751;28;20056;-79
2021/10/29 01:28:49;;;;;;;14.98;7.78;;;;;;;9.28;65.14;101118.63;5026298;28;20056;-81
2021/10/29 01:31:36;;;;;;;;;;;;;;;9.23;64.85;101116.00;5001486;28;20053;-80
2021/10/29 01:34:21;;;;;;;15.93;6.40;;;;;;;9.32;64.09;101117.75;5022512;28;19925;-80
2021/10/29 01:37:10;;;;;;;9.27;5.55;;;;;;;9.15;64.66;101106.63;5022754;28;20072;-78
2021/10/29 01:39:55;;;;;;;10.85;5.03;;;;;;;9.18;65.06;101099.81;5029703;28;20526;-81
2021/10/29 01:42:41;;;;;;;5.93;3.55;;;;;;;9.28;64.54;101107.78;5006234;28;20053;-79
2021/10/29 01:45:27;;;;;;;10.55;5.55;;;;;;;9.11;64.64;101097.47;5022030;28;20125;-78
2021/10/29 01:48:14;;;;;;;9.65;4.68;;;;;;;8.90;65.50;101099.69;5022550;28;20064;-79
2021/10/29 01:50:59;;;;;;;11.43;5.68;;;;;;;9.05;65.46;101098.63;5019598;28;20048;-79
2021/10/29 01:53:45;;;;;;;8.65;4.85;;;;;;;8.71;65.59;101089.94;5012822;28;20069;-80
2021/10/29 01:56:30;;;;;;;7.90;4.88;;;;;;;8.76;66.39;101089.88;5013645;28;20113;-78
2021/10/29 01:59:14;;;;;;;9.55;5.38;;;;;;;8.44;66.58;101096.81;5029103;28;20045;-79
2021/10/29 02:02:00;;;;;;;10.65;5.25;;;;;;;8.07;68.84;101089.41;5021166;28;20052;-79
2021/10/29 02:04:44;;;;;;;10.05;4.90;;;;;;;8.09;68.56;101084.50;5002499;28;20044;-78
2021/10/29 02:07:29;;;;;;;7.50;4.22;;;;;;;8.47;68.07;101090.03;5017969;28;20057;-79
2021/10/29 02:10:15;;;;;;;;;;;;;;;8.76;66.49;101092.59;5024962;28;20044;-78
2021/10/29 02:13:01;;;;;;;11.30;6.72;;;;;;;8.72;66.91;101088.84;5014189;28;19913;-78
2021/10/29 02:15:47;;;;;;;11.18;7.55;;;;;;;8.67;66.04;101089.72;5021166;28;20104;-79
2021/10/29 02:18:33;;;;;;;13.73;6.35;;;;;;;8.76;66.10;101090.69;5011683;28;20499;-78
2021/10/29 02:21:18;;;;;;;14.32;6.95;;;;;;;8.57;66.43;101085.28;5009129;28;20040;-78
2021/10/29 02:24:03;;;;;;;7.22;4.93;;;;;;;8.62;66.53;101080.88;5020199;28;20041;-79
2021/10/29 02:26:48;;;;;;;11.55;6.20;;;;;;;8.78;66.65;101079.56;5023675;28;20048;-78
2021/10/29 02:29:33;;;;;;;12.35;6.38;;;;;;;8.71;65.83;101079.91;5003961;28;20061;-80
2021/10/29 02:32:18;;;;;;;;;;;;;;;8.62;66.36;101078.16;5022285;28;20048;-79
2021/10/29 02:35:03;;;;;;;10.82;7.10;;;;;;;8.56;66.14;101072.00;5016049;28;19913;-79
2021/10/29 02:37:48;;;;;;;7.93;5.70;;;;;;;8.64;66.52;101078.66;5016623;28;20053;-79
2021/10/29 02:40:34;;;;;;;15.90;7.40;;;;;;;8.70;66.17;101072.06;5021665;28;20056;-79
2021/10/29 02:43:19;;;;;;;11.70;6.55;;;;;;;8.55;66.16;101073.09;5005097;28;20036;-79
2021/10/29 02:46:03;;;;;;;8.50;4.88;;;;;;;8.47;66.56;101077.28;5006550;28;20531;-79
2021/10/29 02:48:50;;;;;;;7.78;5.45;;;;;;;8.58;66.52;101076.00;5009054;28;20060;-78
2021/10/29 02:51:36;;;;;;;14.20;6.35;;;;;;;8.53;66.25;101070.66;5025459;28;20040;-81
2021/10/29 02:54:21;;;;;;;28.70;9.10;;;;;;;7.99;68.39;101068.38;5028419;28;20526;-78
2021/10/29 02:57:06;;;;;;;9.63;5.00;;;;;;;7.80;68.34;101064.00;5002648;28;20064;-80
2021/10/29 02:59:50;;;;;;;14.13;7.20;;;;;;;7.60;69.61;101067.72;5024342;28;20522;-77
2021/10/29 03:02:36;;;;;;;12.13;5.30;;;;;;;7.60;69.95;101065.84;5022946;28;20056;-79
2021/10/29 03:05:20;;;;;;;22.90;6.32;;;;;;;7.84;68.82;101065.03;4999501;28;20057;-81
2021/10/29 03:08:05;;;;;;;16.15;6.75;;;;;;;8.04;68.65;101064.78;5010209;28;20053;-80
2021/10/29 03:10:52;;;;;;;14.40;7.00;;;;;;;7.87;68.46;101068.00;5011704;28;20045;-79
2021/10/29 03:13:36;;;;;;;13.20;6.57;;;;;;;8.06;68.36;101062.63;5024956;28;20044;-78
2021/10/29 03:16:21;;;;;;;8.70;5.40;;;;;;;8.02;67.99;101064.28;5027324;28;20048;-79
2021/10/29 03:19:06;;;;;;;8.82;4.40;;;;;;;8.07;67.62;101073.16;5014091;28;20436;-81
2021/10/29 03:21:51;;;;;;;8.52;4.55;;;;;;;8.17;67.63;101069.53;5021848;28;20048;-79
2021/10/29 03:24:36;;;;;;;9.57;4.75;;;;;;;7.88;68.27;101072.28;5019260;28;20052;-79
2021/10/29 03:27:21;;;;;;;9.45;4.93;;;;;;;7.82;68.53;101067.25;5014220;28;20084;-80
2021/10/29 03:30:07;;;;;;;9.27;5.28;;;;;;;7.76;69.00;101057.56;5013853;28;20049;-79
2021/10/29 03:32:53;;;;;;;10.13;5.28;;;;;;;8.02;67.99;101069.72;5017932;28;20045;-82
2021/10/29 03:35:38;;;;;;;8.90;5.55;;;;;;;8.09;67.97;101075.56;5024090;28;20053;-82
2021/10/29 03:41:23;;;;;;;8.43;5.88;;;;;;;8.27;66.85;101079.41;5026256;28;20045;-80
2021/10/29 03:44:27;;;;;;;8.95;6.22;;;;;;;8.41;66.56;101074.91;5020226;28;20041;-81
2021/10/29 03:47:13;;;;;;;8.80;5.97;;;;;;;8.53;65.49;101078.78;5026982;28;20076;-82
2021/10/29 03:53:50;;;;;;;11.70;5.50;;;;;;;8.38;64.78;101075.50;5025325;28;20044;-82
2021/10/29 03:56:26;;;;;;;10.45;5.60;;;;;;;8.29;65.48;101086.16;5026179;28;20053;-81
2021/10/29 03:59:12;;;;;;;15.55;5.70;;;;;;;8.47;65.36;101085.41;5022255;28;20060;-81
2021/10/29 04:01:57;;;;;;;14.07;6.78;;;;;;;8.55;65.67;101084.75;5018952;28;20053;-81
2021/10/29 04:04:42;;;;;;;8.25;4.53;;;;;;;8.57;65.00;101085.28;5035914;28;20056;-81
2021/10/29 04:07:27;;;;;;;15.30;5.03;;;;;;;8.70;65.10;101081.00;5023075;28;20064;-82
2021/10/29 04:10:13;;;;;;;18.30;5.15;;;;;;;8.80;64.25;101086.28;5015073;28;20436;-80
2021/10/29 04:13:02;;;;;;;10.02;5.57;;;;;;;8.28;65.73;101086.44;5028053;28;20041;-80
2021/10/29 04:15:47;;;;;;;8.45;5.55;;;;;;;8.33;65.51;101072.88;5018341;28;20049;-80
2021/10/29 04:18:33;;;;;;;12.05;4.72;;;;;;;8.18;65.99;101071.09;5025229;28;20057;-79
2021/10/29 04:21:18;;;;;;;12.77;5.80;;;;;;;8.18;65.87;101064.91;5025684;28;20064;-81
2021/10/29 04:24:05;;;;;;;6.00;3.97;;;;;;;8.18;65.57;101069.22;5030339;28;20850;-80
2021/10/29 04:26:50;;;;;;;8.13;5.50;;;;;;;8.16;65.81;101070.59;5024949;28;20177;-80
2021/10/29 04:29:37;;;;;;;6.90;4.28;;;;;;;8.31;65.09;101065.03;5018216;28;20045;-79
2021/10/29 04:32:22;;;;;;;12.02;5.88;;;;;;;7.68;66.12;101062.50;5024382;28;20045;-80
2021/10/29 04:35:07;;;;;;;9.60;4.47;;;;;;;7.36;68.00;101064.19;5024266;28;20044;-79
2021/10/29 04:37:52;;;;;;;12.82;6.28;;;;;;;7.48;67.49;101072.72;5019881;28;20044;-80
2021/10/29 04:40:39;;;;;;;8.18;5.13;;;;;;;7.22;68.39;101080.25;5015272;28;20048;-78
2021/10/29 04:43:24;;;;;;;14.48;5.70;;;;;;;7.31;68.90;101081.28;5029285;28;20052;-80
2021/10/29 04:46:09;;;;;;;8.05;4.15;;;;;;;7.12;69.01;101066.81;5029755;28;20121;-80
2021/10/29 04:48:54;;;;;;;11.55;5.38;;;;;;;7.28;68.81;101071.00;5032603;28;20120;-80
2021/10/29 04:51:39;;;;;;;26.75;19.20;;;;;;;7.29;68.95;101067.22;5012370;28;20053;-80
2021/10/29 04:54:24;;;;;;;9.30;4.85;;;;;;;7.29;69.06;101059.09;5032633;28;20048;-80
2021/10/29 04:57:10;;;;;;;12.38;5.82;;;;;;;7.23;69.20;101065.66;5033829;28;20680;-79
2021/10/29 04:59:57;;;;;;;19.98;5.38;;;;;;;7.26;68.91;101067.81;5027481;28;20056;-80
2021/10/29 05:02:43;;;;;;;12.43;5.78;;;;;;;7.10;69.76;101069.03;5024378;28;20049;-80
2021/10/29 05:05:28;;;;;;;7.78;5.65;;;;;;;7.23;69.38;101066.47;5028662;28;20044;-80
2021/10/29 05:08:13;;;;;;;12.15;4.75;;;;;;;7.41;68.51;101075.78;5024738;28;20408;-81
2021/10/29 05:10:57;;;;;;;8.33;4.87;;;;;;;7.22;69.53;101070.25;5019362;28;20048;-80
2021/10/29 05:13:43;;;;;;;14.55;4.75;;;;;;;7.21;69.20;101073.25;5025288;28;20057;-80
2021/10/29 05:16:28;;;;;;;8.23;4.68;;;;;;;7.23;69.01;101071.88;5024202;28;20061;-80
2021/10/29 05:19:13;;;;;;;12.48;5.88;;;;;;;7.20;69.18;101074.34;5033864;28;20521;-79
2021/10/29 05:21:57;;;;;;;13.18;3.65;;;;;;;8.18;80.81;101071.09;5031400;28;20047;-77
2021/10/29 05:24:42;;;;;;;13.07;4.55;;;;;;;9.84;85.18;101069.56;5015246;28;20060;-77
2021/10/29 05:27:28;;;;;;;19.88;6.20;;;;;;;10.72;79.42;101068.25;5009719;28;20060;-76
2021/10/29 05:30:13;;;;;;;17.05;4.00;;;;;;;11.36;75.00;101066.16;5016958;28;20415;-78
2021/10/29 05:32:59;;;;;;;;;;;;;;;11.80;70.83;101066.06;5022728;28;20068;-77
2021/10/29 05:35:44;;;;;;;7.97;5.38;;;;;;;11.30;62.69;101070.13;5018460;28;20387;-76
2021/10/29 05:38:29;;;;;;;;;;;;;;;11.24;70.96;101074.06;5017695;28;20048;-79
2021/10/29 05:41:13;;;;;;;14.88;5.43;;;;;;;11.30;70.55;101072.84;5014530;28;20371;-77
2021/10/29 05:44:00;;;;;;;15.77;3.63;;;;;;;11.70;70.43;101065.53;5026550;28;20052;-78
2021/10/29 05:46:46;;;;;;;11.40;4.50;;;;;;;11.85;68.44;101078.75;5015202;28;20060;-77
2021/10/29 05:49:31;;;;;;;13.00;4.30;;;;;;;11.89;67.68;101068.81;5018299;28;20064;-76
2021/10/29 05:52:24;;;;;;;16.75;3.45;;;;;;;12.18;68.65;101073.75;5017713;28;20065;-78
2021/10/29 05:55:17;;;;;;;12.40;4.30;;;;;;;12.46;68.91;101077.81;5017544;28;20048;-79
2021/10/29 05:58:02;;;;;;;11.50;4.60;;;;;;;12.14;61.59;101081.75;5027779;28;20064;-77
2021/10/29 06:00:47;;;;;;;7.85;3.97;;;;;;;12.00;62.97;101086.50;5026975;28;20048;-76
2021/10/29 06:03:32;;;;;;;29.30;6.85;;;;;;;11.60;57.46;101085.66;5019918;28;20063;-77
2021/10/29 06:06:17;;;;;;;11.05;6.00;;;;;;;11.08;58.06;101085.34;5005058;28;20412;-77
2021/10/29 06:09:02;;;;;;;6.60;3.83;;;;;;;10.93;60.50;101085.72;5020513;28;20408;-76
2021/10/29 06:11:47;;;;;;;10.27;4.25;;;;;;;11.17;61.04;101093.59;5022459;28;20530;-78
2021/10/29 06:14:32;;;;;;;7.75;5.15;;;;;;;10.92;59.04;101094.97;5021792;28;20044;-78
2021/10/29 06:17:18;;;;;;;15.85;5.05;;;;;;;10.83;61.13;101091.38;5022078;28;20049;-78
2021/10/29 06:20:10;;;;;;;16.63;4.20;;;;;;;10.83;60.64;101083.22;5019232;28;20416;-78
2021/10/29 06:22:49;;;;;;;14.38;5.25;;;;;;;10.92;60.62;101092.25;5027538;23;20042;-60
2021/10/29 06:25:46;;;;;;;14.20;5.32;;;;;;;10.88;60.10;101093.19;5038109;28;20520;-60
2021/10/29 06:28:31;;;;;;;8.65;5.10;;;;;;;10.94;60.77;101098.22;5021793;28;20069;-61
2021/10/29 06:31:17;;;;;;;11.10;4.00;;;;;;;10.86;61.31;101089.97;5011224;28;20049;-61
2021/10/29 06:34:02;;;;;;;15.73;6.03;;;;;;;10.68;60.99;101083.56;5021754;28;20430;-61
2021/10/29 06:36:48;;;;;;;15.98;7.30;;;;;;;10.85;62.90;101094.63;5019911;28;20053;-61
2021/10/29 06:39:34;;;;;;;13.68;4.00;;;;;;;11.32;66.58;101097.84;5018435;28;20048;-61
2021/10/29 06:42:27;;;;;;;9.38;4.68;;;;;;;11.82;67.99;101102.00;5018876;28;20045;-61
2021/10/29 07:00:55;;;;;;;8.43;4.05;;;;;;;13.29;62.52;101122.16;5020551;28;20041;-61
2021/10/29 07:42:28;;;;;;;12.85;6.85;;;;;;;12.40;60.26;101147.25;5021495;28;20049;-61
2021/10/29 07:45:13;;;;;;;19.55;6.00;;;;;;;12.37;60.33;101145.19;5035331;28;20311;-61
2021/10/29 07:47:59;;;;;;;7.53;3.80;;;;;;;12.46;60.08;101148.72;5019816;28;20053;-61
2021/10/29 07:50:44;;;;;;;17.38;7.45;;;;;;;12.50;58.83;101148.88;5028272;28;20120;-61
2021/10/29 07:53:30;;;;;;;14.10;6.53;;;;;;;12.49;58.96;101150.03;5025397;28;20077;-61
2021/10/29 07:56:15;;;;;;;25.80;9.75;;;;;;;12.37;59.00;101161.53;5026520;28;20518;-61
2021/10/29 07:59:00;;;;;;;18.20;9.15;;;;;;;12.37;58.79;101158.81;5025026;28;20052;-61
2021/10/29 08:01:45;;;;;;;14.68;8.25;;;;;;;12.40;60.23;101147.25;5027998;28;20045;-61
2021/10/29 08:04:31;;;;;;;15.48;9.38;;;;;;;12.61;61.42;101145.53;5028723;28;20052;-61
2021/10/29 08:07:16;;;;;;;12.75;6.53;;;;;;;12.57;59.72;101150.03;5033886;28;20053;-61
2021/10/29 08:10:03;;;;;;;13.25;7.25;;;;;;;12.55;60.38;101146.81;5017313;28;20505;-61
2021/10/29 08:12:48;;;;;;;18.63;8.73;;;;;;;12.61;60.24;101155.66;5030738;28;20408;-61
2021/10/29 08:15:35;;;;;;;12.35;6.70;;;;;;;12.94;61.07;101164.22;5033122;28;20059;-61
2021/10/29 08:18:21;;;;;;;29.17;14.55;;;;;;;12.83;57.85;101147.34;5029313;28;20048;-61
2021/10/29 08:21:06;;;;;;;18.52;12.55;;;;;;;12.83;59.27;101158.28;5020415;28;20034;-61
2021/10/29 08:23:51;;;;;;;13.48;8.15;;;;;;;13.04;60.97;101158.47;5016848;28;20505;-61
2021/10/29 08:26:36;;;;;;;18.45;7.32;;;;;;;13.07;59.15;101160.53;5039171;28;20259;-61
2021/10/29 08:29:23;;;;;;;11.60;7.70;;;;;;;13.10;59.73;101162.63;5027178;28;20048;-61
2021/10/29 08:32:09;;;;;;;22.40;11.52;;;;;;;13.26;59.56;101166.50;5027019;28;20502;-61
2021/10/29 08:34:53;;;;;;;23.83;11.68;;;;;;;13.42;59.83;101164.09;5029981;28;20045;-61
2021/10/29 08:37:41;;;;;;;10.38;4.03;;;;;;;13.61;61.82;101172.75;5028189;28;20042;-61
2021/10/29 08:40:26;;;;;;;24.38;12.63;;;;;;;13.65;58.64;101168.25;5023412;28;20418;-61
2021/10/29 08:43:12;;;;;;;21.17;8.27;;;;;;;13.76;59.90;101165.97;5029694;28;20046;-61
2021/10/29 08:45:57;;;;;;;13.18;8.43;;;;;;;13.89;59.85;101159.50;5015226;28;20044;-61
2021/10/29 08:48:43;;;;;;;8.73;4.55;;;;;;;13.83;60.11;101158.06;5022923;28;20418;-61
2021/10/29 08:51:28;;;;;;;14.60;6.43;;;;;;;13.93;60.33;101152.22;5013136;28;20510;-61
2021/10/29 08:54:14;;;;;;;23.45;13.60;;;;;;;13.88;57.02;101161.41;5030714;28;20048;-61
2021/10/29 08:57:00;;;;;;;22.02;12.00;;;;;;;13.88;56.41;101155.16;5016904;28;20045;-61
2021/10/29 08:59:48;;;;;;;15.70;9.07;;;;;;;13.93;59.17;101157.69;5030225;28;20049;-61
2021/10/29 09:02:36;;;;;;;21.25;11.43;;;;;;;13.87;58.56;101154.34;5031535;28;20037;-61
2021/10/29 09:05:31;;;;;;;23.27;12.95;;;;;;;13.86;57.41;101160.16;5030756;28;20510;-61
2021/10/29 09:08:34;;;;;;;14.60;6.65;;;;;;;13.85;59.27;101162.09;5019357;28;20037;-61
2021/10/29 09:17:45;;;;;;;18.00;9.05;;;;;;;13.99;57.88;101164.59;5017762;28;19913;-61
2021/10/29 09:33:10;;;;;;;15.70;9.55;;;;;;;14.22;56.89;101151.50;5016431;28;20049;-61
2021/10/29 09:35:55;;;;;;;21.23;12.57;;;;;;;14.24;56.40;101147.28;5012825;28;20052;-61
2021/10/29 09:38:54;;;;;;;17.45;10.68;;;;;;;14.21;54.98;101149.88;5011576;28;20046;-61
2021/10/29 09:42:07;;;;;;;15.93;9.55;;;;;;;14.34;55.89;101141.44;5033629;28;20029;-61
2021/10/29 09:44:53;;;;;;;21.90;13.00;;;;;;;14.34;55.51;101141.44;5012731;28;20137;-61
2021/10/29 09:47:39;;;;;;;23.35;10.75;;;;;;;14.37;55.73;101140.84;5012815;28;20041;-61
2021/10/29 09:50:28;;;;;;;20.00;11.82;;;;;;;14.42;54.78;101139.84;5013159;28;20038;-61
2021/10/29 09:53:24;;;;;;;15.80;10.18;;;;;;;14.38;54.38;101139.69;5012300;28;20054;-61
2021/10/29 09:59:13;;;;;;;17.38;10.50;;;;;;;14.42;53.42;101146.13;5025463;28;20046;-61
2021/10/29 10:01:59;;;;;;;21.80;8.80;;;;;;;14.44;52.46;101146.56;5018887;28;20030;-61
2021/10/29 10:04:51;;;;;;;20.00;9.32;;;;;;;14.54;54.17;101140.72;5020788;28;20045;-61
2021/10/29 10:07:38;;;;;;;16.23;11.57;;;;;;;14.49;51.24;101145.56;5025604;28;20053;-61
2021/10/29 10:10:23;;;;;;;16.92;11.65;;;;;;;14.52;51.47;101137.53;5014230;28;20414;-61
2021/10/29 10:13:08;;;;;;;19.48;11.82;;;;;;;14.51;52.71;101146.06;5021516;28;20030;-61
2021/10/29 10:15:56;;;;;;;20.98;10.73;;;;;;;14.51;52.65;101146.88;5023799;28;20502;-61
2021/10/29 10:18:41;;;;;;;20.45;11.80;;;;;;;14.65;52.81;101146.63;5022841;28;20037;-61
2021/10/29 10:21:28;;;;;;;;;;;;;;;14.62;53.50;101135.53;5016948;28;20037;-61
2021/10/29 10:24:17;;;;;;;18.38;11.18;;;;;;;14.63;52.25;101142.63;5023281;28;20305;-61
2021/10/29 10:30:35;;;;;;;20.33;12.38;;;;;;;14.81;51.87;101133.16;5027021;28;20406;-61
2021/10/29 10:42:48;;;;;;;18.30;11.82;;;;;;;14.89;53.00;101124.06;5019399;28;20034;-61
2021/10/29 10:45:49;;;;;;;23.02;11.50;;;;;;;15.05;51.76;101121.50;5020321;28;20045;-61
2021/10/29 10:49:10;;;;;;;23.15;12.05;;;;;;;15.03;51.38;101118.31;5019521;28;20045;-61
2021/10/29 10:55:08;;;;;;;17.08;11.65;;;;;;;15.08;52.57;101109.91;5019716;28;20046;-61
2021/10/29 11:01:22;;;;;;;22.33;11.80;;;;;;;15.14;51.25;101095.63;5001225;28;20430;-61
2021/10/29 11:10:14;;;;;;;47.08;12.75;;;;;;;15.34;48.27;101097.53;5026626;28;20045;-61
2021/10/29 11:13:05;;;;;;;16.45;10.50;;;;;;;15.35;48.32;101087.38;5023165;28;20033;-61
2021/10/29 11:16:04;;;;;;;15.30;8.80;;;;;;;15.44;47.89;101081.84;5028293;28;20037;-61
2021/10/29 11:19:04;;;;;;;20.35;9.38;;;;;;;15.36;51.91;101087.06;5019014;28;20045;-61
2021/10/29 11:21:54;;;;;;;21.30;9.63;;;;;;;15.40;50.64;101090.72;5025184;28;20064;-61
2021/10/29 11:24:40;;;;;;;40.33;13.57;;;;;;;15.50;50.45;101081.25;5025667;28;20049;-61
2021/10/29 11:27:25;;;;;;;26.27;12.35;;;;;;;15.62;49.16;101086.81;5025728;28;20441;-61
2021/10/29 11:30:10;;;;;;;14.07;8.25;;;;;;;15.75;49.00;101082.13;5017714;28;20053;-61
2021/10/29 11:32:58;;;;;;;24.60;12.10;;;;;;;15.76;51.28;101086.47;5027170;28;20061;-61
2021/10/29 11:36:04;;;;;;;21.17;11.57;;;;;;;15.89;48.94;101063.44;5023423;28;20046;-61
2021/10/29 11:38:51;;;;;;;18.35;12.32;;;;;;;15.92;48.42;101060.00;5022273;28;20499;-61
2021/10/29 11:41:38;;;;;;;22.33;12.88;;;;;;;15.89;47.65;101062.63;5022729;28;20406;-61
2021/10/29 11:44:25;;;;;;;23.85;12.93;;;;;;;15.97;47.50;101059.75;5026027;28;20045;-61
2021/10/29 11:47:10;;;;;;;20.33;12.20;;;;;;;15.92;48.67;101062.72;5021230;28;20038;-61
2021/10/29 11:50:06;;;;;;;25.42;14.25;;;;;;;16.00;48.50;101050.84;5017590;28;20037;-61
2021/10/29 11:52:51;;;;;;;24.38;11.93;;;;;;;15.96;48.65;101047.19;5027668;28;20042;-61
2021/10/29 12:07:50;;;;;;;34.03;14.60;;;;;;;16.04;48.90;101029.03;5027478;28;20045;-61
2021/10/29 12:10:37;;;;;;;;;;;;;;;16.14;48.32;101028.56;5026314;28;20280;-60
2021/10/29 12:13:23;;;;;;;25.42;12.88;;;;;;;15.98;53.07;101025.69;5021487;28;19921;-60
2021/10/29 12:16:21;;;;;;;28.23;13.38;;;;;;;15.97;49.91;101021.34;5023816;28;20030;-60
2021/10/29 12:19:09;;;;;;;17.17;12.90;;;;;;;16.16;48.06;101023.50;5022185;28;20038;-60
2021/10/29 12:22:06;;;;;;;25.48;13.35;;;;;;;16.21;49.71;101015.84;5026531;28;20029;-60
2021/10/29 12:25:04;;;;;;;23.33;14.07;;;;;;;16.30;49.28;101014.91;5028610;28;20482;-60
2021/10/29 12:28:34;;;;;;;23.27;14.32;;;;;;;16.52;46.99;101015.19;5029114;28;20030;-59
2021/10/29 12:31:44;;;;;;;36.17;14.40;;;;;;;16.45;47.91;101015.00;5025276;28;20045;-60
2021/10/29 13:01:25;;;;;;;20.77;13.05;;;;;;;16.76;45.03;100972.38;5013210;28;20407;-60
2021/10/29 13:02:36;;;;;;;22.00;14.02;;;;;;;16.79;45.16;100975.19;5012995;28;20042;-60
2021/10/29 13:05:21;;;;;;;21.60;14.13;;;;;;;16.85;44.56;100967.50;5013173;28;20488;-60
2021/10/29 13:08:19;;;;;;;;;;;;;;;16.97;44.24;100973.72;5013493;28;20045;-60
2021/10/29 13:11:04;;;;;;;24.35;13.75;;;;;;;16.92;44.35;100968.47;5013371;28;19913;-60
2021/10/29 13:13:55;;;;;;;20.92;12.43;;;;;;;17.04;44.12;100964.88;5013015;28;20484;-60
2021/10/29 13:16:41;;;;;;;26.75;12.15;;;;;;;17.07;43.62;100964.97;5012886;28;20041;-60
2021/10/29 13:28:21;;;;;;;;;;;;;;;17.18;43.20;100953.44;5013085;28;20430;-61
2021/10/29 13:55:00;;;;;;;;;;;;;;;17.68;41.05;100928.78;5012899;28;20045;-60
2021/10/29 14:01:05;;;;;;;20.60;12.95;;;;;;;17.76;39.31;100927.03;5012189;28;20050;-60
2021/10/29 14:04:11;;;;;;;20.08;11.55;;;;;;;17.76;40.15;100930.56;5012413;28;20041;-60
2021/10/29 14:28:14;;;;;;;21.02;11.43;;;;;;;17.73;40.66;100927.72;5012001;28;20038;-61
2021/10/29 14:31:06;;;;;;;;;;;;;;;17.75;40.73;100928.16;5012334;28;20046;-60
2021/10/29 14:34:08;;;;;;;24.48;12.85;;;;;;;17.75;41.33;100926.22;5010915;28;20303;-60
2021/10/29 14:37:00;;;;;;;19.95;13.23;;;;;;;17.74;40.96;100915.56;5011817;28;20038;-60
2021/10/29 14:40:13;;;;;;;21.60;13.27;;;;;;;17.69;41.50;100919.38;5011990;28;20042;-60
2021/10/29 14:42:56;;;;;;;18.05;12.27;;;;;;;17.66;40.47;100920.13;5018301;28;20407;-60
2021/10/29 14:46:30;;;;;;;17.83;12.60;;;;;;;17.69;40.30;100913.91;5012017;28;20038;-60
2021/10/29 14:48:58;;;;;;;24.08;13.20;;;;;;;17.67;40.86;100918.97;5011378;28;20050;-60
2021/10/29 15:16:00;;;;;;;26.50;14.30;;;;;;;17.20;42.48;100929.97;5011637;28;20038;-61
2021/10/29 15:28:13;;;;;;;21.33;14.60;;;;;;;16.99;43.09;100935.72;5014804;28;20487;-60
2021/10/29 15:46:06;;;;;;;29.15;14.82;;;;;;;16.55;46.05;100953.31;5014639;28;20041;-60
2021/10/29 15:49:00;;;;;;;36.50;16.20;;;;;;;16.30;46.98;100947.13;5014532;28;20407;-61
2021/10/29 15:51:52;;;;;;;25.23;14.63;;;;;;;16.21;47.83;100943.69;5014722;28;20042;-61
2021/10/29 15:54:43;;;;;;;29.55;15.15;;;;;;;16.07;48.75;100949.56;5014402;28;20046;-60
2021/10/29 15:57:30;;;;;;;29.48;15.63;;;;;;;16.02;49.26;100935.28;5014294;28;20042;-61
2021/10/29 16:00:35;;;;;;;38.60;16.88;;;;;;;15.94;49.28;100933.47;5014543;28;20054;-60
2021/10/29 16:18:31;;;;;;;26.73;15.95;;;;;;;15.65;48.77;100940.81;5013751;28;20046;-61
2021/10/29 16:21:15;;;;;;;;;;;;;;;15.57;48.95;100946.41;5004073;28;20046;-61
2021/10/29 16:24:00;;;;;;;26.98;15.38;;;;;;;15.49;49.29;100944.56;5014185;28;20271;-59
2021/10/29 16:26:47;;;;;;;18.50;11.50;;;;;;;15.28;50.07;100942.72;5014218;28;20037;-60
2021/10/29 16:29:32;;;;;;;24.13;16.02;;;;;;;15.21;49.93;100938.94;5013780;28;20050;-60
2021/10/29 16:32:25;;;;;;;;;;;;;;;15.12;50.20;100941.00;5013574;28;20038;-60
2021/10/29 16:35:10;;;;;;;25.17;15.98;;;;;;;15.04;50.23;100942.69;5013917;28;19917;-60
2021/10/29 16:37:55;;;;;;;33.92;15.55;;;;;;;14.95;50.88;100948.25;5026764;28;20037;-61
2021/10/29 16:40:40;;;;;;;;;;;;;;;14.86;50.94;100939.34;5015053;28;20042;-60
2021/10/29 16:43:25;;;;;;;70.47;27.50;;;;;;;14.71;51.36;100942.72;5013645;28;19914;-60
2021/10/29 16:46:10;;;;;;;27.33;18.15;;;;;;;14.69;51.60;100952.38;5013430;28;20038;-61
2021/10/29 16:48:56;;;;;;;;;;;;;;;14.58;51.99;100953.97;5014176;28;20046;-61
2021/10/29 16:51:40;;;;;;;36.10;17.58;;;;;;;14.47;52.36;100948.91;5013617;28;19913;-61
2021/10/29 16:54:25;;;;;;;27.77;17.45;;;;;;;14.42;52.67;100957.31;5013322;28;20038;-60
2021/10/29 16:57:11;;;;;;;29.50;14.23;;;;;;;14.34;52.87;100955.41;5017971;28;20045;-61
2021/10/29 16:59:55;;;;;;;42.33;17.88;;;;;;;14.31;52.86;100966.22;5013408;28;20045;-61
2021/10/29 17:02:41;;;;;;;34.75;14.07;;;;;;;14.26;52.86;100980.09;5013234;28;20495;-61
2021/10/29 17:05:26;;;;;;;44.83;19.05;;;;;;;14.18;52.89;100981.75;5013270;28;20038;-60
2021/10/29 17:08:12;;;;;;;25.70;12.32;;;;;;;13.98;53.33;100977.06;5013336;28;20049;-60
2021/10/29 17:10:57;;;;;;;53.22;18.20;;;;;;;13.83;53.74;100985.84;5012965;28;20042;-61
2021/10/29 17:13:44;;;;;;;35.33;17.45;;;;;;;13.74;54.39;100979.63;5011590;28;20487;-61
2021/10/29 17:16:30;;;;;;;37.63;13.95;;;;;;;13.60;54.59;100985.34;5019972;28;20495;-61
2021/10/29 17:19:15;;;;;;;33.63;20.55;;;;;;;13.59;54.60;100981.78;5013061;28;20038;-60
2021/10/29 17:22:00;;;;;;;;;;;;;;;13.61;54.48;100990.44;5013321;28;20487;-61
2021/10/29 17:24:46;;;;;;;37.08;18.50;;;;;;;13.62;54.62;100991.25;5013390;28;19913;-62